National Weather Service United States Department of Commerce
Click Here for Latest Airport Weather Warnings
 
Latest Huntsville TAF


000
FTUS44 KHUN 180526
TAFHSV
TAF
KHSV 180526Z 1806/1906 32003KT P6SM SCT120
FM181700 31008KT P6SM SCT040 BKN200=

Latest Muscle Shoals TAF


000
FTUS44 KHUN 180526
TAFMSL
TAF
KMSL 180526Z 1806/1906 32003KT P6SM SCT120
FM181600 31007KT P6SM SCT040 BKN200=


Back to Main Huntsville Weather Forecast Office Page